createdAt,value
2023-06-22T00:02:28.106Z,22.50
2023-06-22T00:05:13.704Z,22.40
2023-06-22T00:08:05.007Z,22.50
2023-06-22T00:10:50.319Z,22.40
2023-06-22T00:13:36.147Z,22.20
2023-06-22T00:16:21.395Z,22.20
2023-06-22T00:19:06.954Z,22.50
2023-06-22T00:21:55.403Z,22.10
2023-06-22T00:24:40.711Z,22.00
2023-06-22T00:27:26.372Z,21.90
2023-06-22T00:30:12.162Z,21.80
2023-06-22T00:32:57.948Z,21.80
2023-06-22T00:35:43.684Z,22.80
2023-06-22T00:38:29.036Z,21.60
2023-06-22T00:41:14.535Z,21.70
2023-06-22T00:44:00.050Z,21.80
2023-06-22T00:46:45.897Z,21.80
2023-06-22T00:49:31.944Z,22.40
2023-06-22T00:52:21.981Z,21.80
2023-06-22T00:55:07.948Z,21.90
2023-06-22T00:57:57.928Z,21.80
2023-06-22T01:00:43.882Z,21.80
2023-06-22T01:03:29.808Z,21.70
2023-06-22T01:06:22.841Z,21.60
2023-06-22T01:09:19.001Z,21.60
2023-06-22T01:12:08.657Z,21.60
2023-06-22T01:15:08.005Z,21.50
2023-06-22T01:17:54.672Z,21.40
2023-06-22T01:20:41.910Z,21.40
2023-06-22T01:23:52.722Z,21.40
2023-06-22T01:27:14.942Z,21.30
2023-06-22T01:30:02.194Z,21.10
2023-06-22T01:32:49.487Z,21.00
2023-06-22T01:35:35.092Z,21.10
2023-06-22T01:38:21.036Z,21.20
2023-06-22T01:41:07.062Z,21.00
2023-06-22T01:43:53.829Z,21.20
2023-06-22T01:46:40.690Z,21.20
2023-06-22T01:49:26.535Z,21.10
2023-06-22T01:52:12.320Z,21.20
2023-06-22T01:54:59.125Z,21.20
2023-06-22T01:57:44.787Z,21.20
2023-06-22T02:00:34.476Z,21.00
2023-06-22T02:03:24.264Z,21.30
2023-06-22T02:06:15.943Z,21.20
2023-06-22T02:09:04.232Z,20.90
2023-06-22T02:11:55.904Z,21.00
2023-06-22T02:14:42.086Z,21.10
2023-06-22T02:17:28.167Z,20.90
2023-06-22T02:20:15.310Z,20.80
2023-06-22T02:23:00.915Z,20.80
2023-06-22T02:25:46.833Z,20.80
2023-06-22T02:28:31.977Z,20.60
2023-06-22T02:31:17.490Z,20.40
2023-06-22T02:34:03.264Z,20.30
2023-06-22T02:36:52.973Z,20.40
2023-06-22T02:39:38.768Z,20.40
2023-06-22T02:42:24.115Z,20.40
2023-06-22T02:45:10.024Z,20.30
2023-06-22T02:47:56.611Z,20.40
2023-06-22T02:50:42.125Z,20.30
2023-06-22T02:53:27.524Z,20.70
2023-06-22T02:56:13.926Z,20.20
2023-06-22T02:59:02.431Z,20.20
2023-06-22T03:01:47.919Z,20.40
2023-06-22T03:04:33.667Z,20.40
2023-06-22T03:07:19.297Z,20.40
2023-06-22T03:10:05.445Z,20.30
2023-06-22T03:12:51.683Z,20.30
2023-06-22T03:15:36.943Z,21.00
2023-06-22T03:18:23.548Z,20.20
2023-06-22T03:21:08.867Z,20.50
2023-06-22T03:23:54.524Z,20.20
2023-06-22T03:26:40.000Z,19.80
2023-06-22T03:29:28.318Z,19.70
2023-06-22T03:32:14.922Z,19.70
2023-06-22T03:35:00.568Z,19.60
2023-06-22T03:37:45.956Z,19.60
2023-06-22T03:40:31.889Z,19.60
2023-06-22T03:43:17.794Z,19.80
2023-06-22T03:46:03.403Z,19.80
2023-06-22T03:48:49.015Z,19.80
2023-06-22T03:51:34.687Z,19.90
2023-06-22T03:54:20.219Z,19.80
2023-06-22T03:57:06.683Z,19.80
2023-06-22T03:59:51.832Z,19.80
2023-06-22T04:02:37.427Z,19.70
2023-06-22T04:05:22.944Z,19.70
2023-06-22T04:08:09.006Z,20.30
2023-06-22T04:10:54.753Z,19.80
2023-06-22T04:13:39.849Z,20.60
2023-06-22T04:16:25.423Z,20.00
2023-06-22T04:19:17.262Z,20.00
2023-06-22T04:22:02.713Z,21.20
2023-06-22T04:24:48.630Z,19.90
2023-06-22T04:27:38.285Z,20.20
2023-06-22T04:30:23.849Z,20.00
2023-06-22T04:33:10.412Z,19.90
2023-06-22T04:35:56.077Z,20.30
2023-06-22T04:38:41.570Z,20.00
2023-06-22T04:41:26.906Z,20.20
2023-06-22T04:44:25.838Z,20.80
2023-06-22T04:47:11.486Z,20.80
2023-06-22T04:49:56.701Z,20.40
2023-06-22T04:52:42.312Z,20.60
2023-06-22T04:55:27.915Z,21.10
2023-06-22T04:58:14.065Z,20.80
2023-06-22T05:00:59.640Z,21.00
2023-06-22T05:03:45.368Z,21.40
2023-06-22T05:06:30.922Z,21.00
2023-06-22T05:09:16.350Z,21.20
2023-06-22T05:12:03.723Z,21.70
2023-06-22T05:14:49.053Z,21.10
2023-06-22T05:17:35.172Z,21.10
2023-06-22T05:20:20.710Z,21.30
2023-06-22T05:23:05.989Z,21.50
2023-06-22T05:25:52.631Z,21.60
2023-06-22T05:28:37.825Z,21.70
2023-06-22T05:31:23.748Z,21.90
2023-06-22T05:34:09.154Z,22.20
2023-06-22T05:36:54.410Z,22.50
2023-06-22T05:39:39.908Z,22.50
2023-06-22T05:42:26.838Z,22.80
2023-06-22T05:45:12.172Z,23.00
2023-06-22T05:47:57.718Z,23.40
2023-06-22T05:50:43.850Z,23.80
2023-06-22T05:53:29.201Z,23.90
2023-06-22T05:56:14.517Z,23.40
2023-06-22T05:59:00.088Z,23.10
2023-06-22T06:01:45.827Z,22.90
2023-06-22T06:04:31.526Z,22.60
2023-06-22T06:07:17.168Z,22.50
2023-06-22T06:10:02.980Z,22.40
2023-06-22T06:12:48.296Z,22.90
2023-06-22T06:15:35.376Z,22.30
2023-06-22T06:18:20.826Z,21.80
2023-06-22T06:21:06.811Z,21.70
2023-06-22T06:23:52.005Z,21.60
2023-06-22T06:26:37.833Z,21.90
2023-06-22T06:29:24.843Z,22.00
2023-06-22T06:32:10.355Z,23.40
2023-06-22T06:34:55.832Z,22.80
2023-06-22T06:37:43.701Z,22.50
2023-06-22T06:40:29.339Z,22.30
2023-06-22T06:43:14.981Z,22.60
2023-06-22T06:46:00.535Z,22.80
2023-06-22T06:48:46.234Z,22.90
2023-06-22T06:51:32.047Z,23.20
2023-06-22T06:54:17.555Z,23.20
2023-06-22T06:57:04.272Z,23.50
2023-06-22T06:59:50.587Z,23.30
2023-06-22T07:02:36.606Z,23.60
2023-06-22T07:05:21.949Z,24.00
2023-06-22T07:08:07.219Z,24.10
2023-06-22T07:10:53.760Z,24.20
2023-06-22T07:13:39.562Z,24.30
2023-06-22T07:16:26.803Z,24.30
2023-06-22T07:19:15.868Z,24.40
2023-06-22T07:22:01.698Z,24.20
2023-06-22T07:24:47.080Z,24.40
2023-06-22T07:27:36.943Z,24.40
2023-06-22T07:30:22.370Z,24.50
2023-06-22T07:33:09.984Z,24.60
2023-06-22T07:35:55.942Z,24.60
2023-06-22T07:38:41.508Z,24.70
2023-06-22T07:41:27.165Z,25.00
2023-06-22T07:44:12.702Z,25.30
2023-06-22T07:46:58.000Z,25.30
2023-06-22T07:49:43.629Z,25.50
2023-06-22T07:52:32.968Z,25.80
2023-06-22T07:55:18.158Z,25.80
2023-06-22T07:58:03.650Z,25.70
2023-06-22T08:00:50.658Z,25.60
2023-06-22T08:03:36.129Z,25.60
2023-06-22T08:06:21.793Z,25.10
2023-06-22T08:09:07.776Z,25.00
2023-06-22T08:11:53.361Z,24.70
2023-06-22T08:14:40.058Z,24.80
2023-06-22T08:17:27.492Z,25.00
2023-06-22T08:20:13.812Z,25.10
2023-06-22T08:23:06.248Z,25.00
2023-06-22T08:25:51.832Z,24.80
2023-06-22T08:28:37.437Z,25.60
2023-06-22T08:31:22.976Z,25.50
2023-06-22T08:34:08.351Z,25.50
2023-06-22T08:36:53.951Z,25.30
2023-06-22T08:39:40.183Z,25.30
2023-06-22T08:42:26.702Z,25.40
2023-06-22T08:45:13.340Z,25.00
2023-06-22T08:47:59.042Z,24.60
2023-06-22T08:50:44.624Z,25.20
2023-06-22T08:53:33.200Z,25.10
2023-06-22T08:56:19.222Z,25.10
2023-06-22T08:59:04.663Z,25.70
2023-06-22T09:01:50.028Z,25.40
2023-06-22T09:04:36.199Z,25.30
2023-06-22T09:07:23.567Z,25.30
2023-06-22T09:10:09.509Z,25.20
2023-06-22T09:12:55.151Z,25.00
2023-06-22T09:15:40.970Z,25.00
2023-06-22T09:18:26.672Z,24.90
2023-06-22T09:21:12.049Z,25.10
2023-06-22T09:23:58.005Z,25.20
2023-06-22T09:26:43.506Z,25.10
2023-06-22T09:29:28.789Z,25.30
2023-06-22T09:32:14.450Z,25.40
2023-06-22T09:34:59.976Z,25.30
2023-06-22T09:37:46.319Z,25.70
2023-06-22T09:40:33.890Z,26.00
2023-06-22T09:43:19.218Z,26.10
2023-06-22T09:46:04.574Z,26.40
2023-06-22T09:48:50.213Z,26.60
2023-06-22T09:51:35.751Z,26.60
2023-06-22T09:54:21.003Z,26.70
2023-06-22T09:57:06.597Z,26.70
2023-06-22T09:59:52.016Z,26.50
2023-06-22T10:02:37.783Z,25.80
2023-06-22T10:05:23.585Z,25.70
2023-06-22T10:08:11.255Z,25.90
2023-06-22T10:10:56.529Z,26.00
2023-06-22T10:13:42.064Z,26.10
2023-06-22T10:16:32.736Z,25.90
2023-06-22T10:19:17.995Z,25.90
2023-06-22T10:22:03.925Z,25.60
2023-06-22T10:24:49.486Z,25.70
2023-06-22T10:27:34.975Z,25.80
2023-06-22T10:30:20.760Z,25.80
2023-06-22T10:33:06.136Z,26.10
2023-06-22T10:35:52.070Z,26.00
2023-06-22T10:38:37.325Z,25.80
2023-06-22T10:41:22.974Z,25.70
2023-06-22T10:44:08.366Z,25.60
2023-06-22T10:46:53.995Z,26.00
2023-06-22T10:49:43.158Z,25.70
2023-06-22T10:52:31.842Z,26.10
2023-06-22T10:55:17.908Z,26.10
2023-06-22T10:58:04.822Z,26.40
2023-06-22T11:00:53.529Z,26.80
2023-06-22T11:03:39.353Z,27.30
2023-06-22T11:06:25.071Z,27.10
2023-06-22T11:09:23.707Z,27.20
2023-06-22T11:12:11.075Z,27.20
2023-06-22T11:17:43.932Z,27.10
2023-06-22T11:20:29.634Z,27.50
2023-06-22T11:23:15.919Z,27.10
2023-06-22T11:26:01.491Z,26.80
2023-06-22T11:28:47.406Z,26.90
2023-06-22T11:31:33.707Z,27.00
2023-06-22T11:34:20.217Z,27.10
2023-06-22T11:37:06.034Z,26.80
2023-06-22T11:39:59.695Z,27.10
2023-06-22T11:42:52.875Z,27.60
2023-06-22T11:45:38.142Z,27.00
2023-06-22T11:48:23.857Z,27.00
2023-06-22T11:51:09.744Z,27.00
2023-06-22T11:53:55.701Z,26.80
2023-06-22T11:56:40.936Z,26.50
2023-06-22T11:59:26.876Z,26.60
2023-06-22T12:02:12.847Z,26.70
2023-06-22T12:05:03.812Z,26.70
2023-06-22T12:07:50.098Z,26.70
2023-06-22T12:10:38.009Z,26.90
2023-06-22T12:13:23.413Z,26.80
2023-06-22T12:16:09.302Z,27.00
2023-06-22T12:18:55.176Z,27.00
2023-06-22T12:21:41.951Z,27.10
2023-06-22T12:24:27.699Z,27.30
2023-06-22T12:27:13.134Z,27.30
2023-06-22T12:29:58.528Z,27.30
2023-06-22T12:32:43.897Z,27.50
2023-06-22T12:35:29.453Z,27.30
2023-06-22T12:38:14.760Z,27.10
2023-06-22T12:41:00.391Z,26.90
2023-06-22T12:43:45.896Z,26.60
2023-06-22T12:46:38.431Z,26.40
2023-06-22T12:49:24.097Z,26.30
2023-06-22T12:52:12.664Z,26.30
2023-06-22T12:54:58.352Z,26.50
2023-06-22T12:57:44.107Z,26.50
2023-06-22T13:00:29.650Z,26.40
2023-06-22T13:03:15.637Z,26.40
2023-06-22T13:06:01.376Z,26.10
2023-06-22T13:09:18.610Z,25.70
2023-06-22T13:11:53.913Z,25.50
2023-06-22T13:14:39.547Z,25.10
2023-06-22T13:17:24.768Z,25.00
2023-06-22T13:20:10.843Z,25.50
2023-06-22T13:22:57.272Z,25.30
2023-06-22T13:25:42.743Z,25.50
2023-06-22T13:28:30.295Z,25.80
2023-06-22T13:31:15.639Z,25.90
2023-06-22T13:34:01.307Z,25.90
2023-06-22T13:36:47.205Z,26.00
2023-06-22T13:39:32.676Z,26.00
2023-06-22T13:42:18.453Z,26.00
2023-06-22T13:45:04.954Z,25.90
2023-06-22T13:47:50.202Z,26.00
2023-06-22T13:50:35.700Z,26.10
2023-06-22T13:53:21.296Z,25.80
2023-06-22T13:56:06.610Z,25.80
2023-06-22T13:58:52.153Z,25.50
2023-06-22T14:01:40.020Z,25.20
2023-06-22T14:04:25.548Z,24.80
2023-06-22T14:07:11.046Z,24.70
2023-06-22T14:09:56.358Z,24.70
2023-06-22T14:12:41.646Z,24.60
2023-06-22T14:15:26.997Z,24.50
2023-06-22T14:18:12.574Z,23.60
2023-06-22T14:20:57.929Z,23.30
2023-06-22T14:23:48.360Z,23.20
2023-06-22T14:26:33.721Z,24.00
2023-06-22T14:29:19.054Z,23.20
2023-06-22T14:32:05.643Z,23.40
2023-06-22T14:34:51.277Z,23.60
2023-06-22T14:37:36.545Z,23.60
2023-06-22T14:40:23.629Z,23.60
2023-06-22T14:43:09.415Z,23.40
2023-06-22T14:45:54.929Z,23.20
2023-06-22T14:48:40.510Z,23.00
2023-06-22T14:51:25.807Z,23.00
2023-06-22T14:54:11.204Z,22.80
2023-06-22T14:56:56.775Z,22.80
2023-06-22T14:59:42.215Z,22.70
2023-06-22T15:02:28.119Z,22.70
2023-06-22T15:05:13.755Z,22.40
2023-06-22T15:07:59.389Z,22.60
2023-06-22T15:10:44.935Z,22.60
2023-06-22T15:13:35.133Z,22.80
2023-06-22T15:16:20.507Z,22.90
2023-06-22T15:19:06.120Z,22.60
2023-06-22T15:21:51.702Z,22.80
2023-06-22T15:24:37.087Z,22.80
2023-06-22T15:27:22.391Z,22.90
2023-06-22T15:30:08.688Z,22.80
2023-06-22T15:32:54.250Z,22.90
2023-06-22T15:35:39.554Z,22.90
2023-06-22T15:38:25.190Z,22.80
2023-06-22T15:41:10.668Z,23.40
2023-06-22T15:43:56.550Z,22.70
2023-06-22T15:46:41.924Z,22.70
2023-06-22T15:49:28.620Z,22.50
2023-06-22T15:52:14.137Z,22.50
2023-06-22T15:55:01.616Z,22.70
2023-06-22T15:57:50.381Z,22.70
2023-06-22T16:00:35.732Z,22.70
2023-06-22T16:03:21.022Z,22.60
2023-06-22T16:06:06.444Z,23.20
2023-06-22T16:08:52.392Z,22.80
2023-06-22T16:11:37.777Z,22.90
2023-06-22T16:14:23.528Z,22.80
2023-06-22T16:17:09.125Z,22.50
2023-06-22T16:19:55.781Z,22.50
2023-06-22T16:22:41.569Z,22.60
2023-06-22T16:25:27.655Z,22.10
2023-06-22T16:28:13.454Z,22.00
2023-06-22T16:30:59.050Z,22.00
2023-06-22T16:33:48.078Z,21.60
2023-06-22T16:36:33.401Z,21.20
2023-06-22T16:39:19.214Z,20.90
2023-06-22T16:42:04.674Z,20.80
2023-06-22T16:44:50.136Z,20.60
2023-06-22T16:47:36.346Z,20.30
2023-06-22T16:50:22.156Z,20.50
2023-06-22T16:53:07.382Z,19.60
2023-06-22T16:55:53.804Z,19.10
2023-06-22T16:58:42.038Z,18.90
2023-06-22T17:01:30.349Z,18.80
2023-06-22T17:04:20.936Z,18.50
2023-06-22T17:07:12.379Z,18.50
2023-06-22T17:09:58.545Z,19.00
2023-06-22T17:12:44.651Z,18.30
2023-06-22T17:15:32.828Z,18.30
2023-06-22T17:18:19.733Z,18.90
2023-06-22T17:21:05.033Z,18.40
2023-06-22T17:23:55.031Z,18.40
2023-06-22T17:26:40.676Z,18.70
2023-06-22T17:29:36.948Z,18.70
2023-06-22T17:32:22.912Z,18.90
2023-06-22T17:35:11.890Z,19.00
2023-06-22T17:37:58.670Z,19.30
2023-06-22T17:40:44.283Z,19.30
2023-06-22T17:43:30.058Z,18.90
2023-06-22T17:46:17.664Z,19.50
2023-06-22T17:49:07.403Z,19.50
2023-06-22T17:51:53.985Z,20.10
2023-06-22T17:54:51.518Z,19.50
2023-06-22T17:57:44.584Z,19.60
2023-06-22T18:00:30.199Z,19.70
2023-06-22T18:03:15.907Z,19.70
2023-06-22T18:06:01.945Z,19.80
2023-06-22T18:08:49.573Z,20.80
2023-06-22T18:11:56.852Z,20.40
2023-06-22T18:14:43.210Z,19.70
2023-06-22T18:17:28.943Z,19.80
2023-06-22T18:20:14.275Z,19.80
2023-06-22T18:23:00.326Z,20.30
2023-06-22T18:25:46.615Z,19.80
2023-06-22T18:28:32.659Z,19.90
2023-06-22T18:31:20.343Z,19.80
2023-06-22T18:34:08.227Z,19.90
2023-06-22T18:36:56.897Z,19.90
2023-06-22T18:39:46.621Z,19.80
2023-06-22T18:42:32.437Z,20.40
2023-06-22T18:45:29.276Z,20.10
2023-06-22T18:48:23.422Z,19.40
2023-06-22T18:51:12.640Z,19.40
2023-06-22T18:54:08.088Z,18.90
2023-06-22T18:56:58.274Z,18.70
2023-06-22T19:00:10.356Z,18.50
2023-06-22T19:03:00.002Z,18.70
2023-06-22T19:05:45.708Z,18.80
2023-06-22T19:09:09.897Z,18.80
2023-06-22T19:12:17.986Z,18.80
2023-06-22T19:15:14.444Z,19.00
2023-06-22T19:18:15.447Z,19.00
2023-06-22T19:21:03.298Z,18.90
2023-06-22T19:23:49.503Z,18.90
2023-06-22T19:26:36.224Z,19.00
2023-06-22T19:29:22.415Z,19.10
2023-06-22T19:32:11.310Z,19.10
2023-06-22T19:34:57.255Z,19.20
2023-06-22T19:37:42.723Z,19.30
2023-06-22T19:40:28.347Z,19.30
2023-06-22T19:43:17.654Z,19.10
2023-06-22T19:46:03.362Z,19.20
2023-06-22T19:48:51.938Z,19.00
2023-06-22T19:51:37.609Z,19.00
2023-06-22T19:54:23.290Z,19.00
2023-06-22T19:57:10.358Z,19.10
2023-06-22T19:59:55.773Z,19.10
2023-06-22T20:02:45.758Z,19.80
2023-06-22T20:05:31.554Z,19.00
2023-06-22T20:08:17.681Z,18.90
2023-06-22T20:11:03.015Z,19.30
2023-06-22T20:13:50.143Z,18.70
2023-06-22T20:16:49.114Z,18.70
2023-06-22T20:19:41.931Z,18.60
2023-06-22T20:22:27.818Z,17.90
2023-06-22T20:25:13.515Z,18.60
2023-06-22T20:28:06.694Z,18.80
2023-06-22T20:31:11.145Z,18.50
2023-06-22T20:34:05.948Z,18.50
2023-06-22T20:36:51.602Z,18.50
2023-06-22T20:39:37.621Z,18.40
2023-06-22T20:42:23.514Z,18.40
2023-06-22T20:45:09.983Z,18.50
2023-06-22T20:47:56.950Z,18.50
2023-06-22T20:50:43.009Z,18.50
2023-06-22T20:53:32.268Z,18.60
2023-06-22T20:56:18.381Z,18.60
2023-06-22T20:59:03.696Z,19.60
2023-06-22T21:01:49.274Z,18.60
2023-06-22T21:04:37.418Z,18.50
2023-06-22T21:07:23.343Z,19.30
2023-06-22T21:10:09.206Z,18.60
2023-06-22T21:12:54.370Z,18.50
2023-06-22T21:15:39.950Z,18.50
2023-06-22T21:18:25.564Z,19.10
2023-06-22T21:21:11.142Z,18.50
2023-06-22T21:23:56.968Z,18.90
2023-06-22T21:26:42.299Z,18.70
2023-06-22T21:29:27.857Z,18.70
2023-06-22T21:32:13.030Z,18.80
2023-06-22T21:34:58.848Z,18.70
2023-06-22T21:37:45.981Z,18.70
2023-06-22T21:40:31.284Z,19.30
2023-06-22T21:43:16.585Z,18.50
2023-06-22T21:46:01.895Z,18.40
2023-06-22T21:48:47.304Z,18.20
2023-06-22T21:51:34.995Z,18.20
2023-06-22T21:54:20.840Z,18.20
2023-06-22T21:57:06.780Z,18.20
2023-06-22T21:59:52.218Z,18.40
2023-06-22T22:02:37.894Z,18.90
2023-06-22T22:05:23.926Z,18.30
2023-06-22T22:08:10.154Z,18.30
2023-06-22T22:10:55.828Z,18.30
2023-06-22T22:13:41.994Z,18.40
2023-06-22T22:16:27.302Z,18.30
2023-06-22T22:19:14.883Z,18.20
2023-06-22T22:22:00.224Z,18.20
2023-06-22T22:24:45.710Z,18.10
2023-06-22T22:27:31.239Z,17.90
2023-06-22T22:30:16.781Z,17.90
2023-06-22T22:33:02.432Z,18.00
2023-06-22T22:35:48.267Z,18.10
2023-06-22T22:38:35.857Z,18.10
2023-06-22T22:41:21.576Z,18.20
2023-06-22T22:44:07.233Z,18.10
2023-06-22T22:46:52.644Z,18.20
2023-06-22T22:49:38.268Z,18.30
2023-06-22T22:52:23.520Z,18.30
2023-06-22T22:55:10.222Z,19.10
2023-06-22T22:57:55.665Z,18.30
2023-06-22T23:00:41.564Z,18.70
2023-06-22T23:03:27.190Z,18.20
2023-06-22T23:06:12.581Z,18.00
2023-06-22T23:08:58.772Z,17.90
2023-06-22T23:11:44.274Z,17.80
2023-06-22T23:14:29.810Z,17.80
2023-06-22T23:17:15.599Z,17.90
2023-06-22T23:20:08.376Z,18.00
2023-06-22T23:23:00.207Z,17.80
2023-06-22T23:25:46.214Z,18.50
2023-06-22T23:28:37.661Z,18.50
2023-06-22T23:31:23.511Z,17.90
2023-06-22T23:34:09.357Z,18.00
2023-06-22T23:36:54.506Z,18.10
2023-06-22T23:39:44.585Z,17.90
2023-06-22T23:42:30.223Z,17.70
2023-06-22T23:45:18.360Z,18.00
2023-06-22T23:48:04.166Z,18.10
2023-06-22T23:50:51.229Z,17.90
2023-06-22T23:53:37.222Z,18.00
2023-06-22T23:56:23.311Z,17.90
2023-06-22T23:59:09.563Z,17.80
